Time;durP1;ratioP1;P1;durP2;ratioP2;P2;SDS_P1;SDS_P2;PMS_P1;PMS_P2;Temp;Humidity;BMP_temperature;BMP_pressure;BME280_temperature;BME280_humidity;BME280_pressure;Samples;Min_cycle;Max_cycle;Signal;HPM_P1;HPM_P2
2022/01/29 00:00:20;;;;;;;26.75;13.35;;;7.50;99.90;;;;;;5072744;28;20564;-74
2022/01/29 00:02:46;;;;;;;30.45;13.98;;;7.50;99.90;;;;;;5088540;28;20557;-74
2022/01/29 00:05:12;;;;;;;25.70;13.15;;;7.60;99.90;;;;;;5091664;28;20039;-74
2022/01/29 00:07:41;;;;;;;22.50;10.70;;;7.40;99.90;;;;;;5089407;28;20082;-74
2022/01/29 00:10:07;;;;;;;22.52;10.52;;;7.50;99.90;;;;;;5091576;28;20048;-75
2022/01/29 00:12:33;;;;;;;22.77;11.07;;;7.60;99.90;;;;;;5071519;28;20075;-75
2022/01/29 00:14:59;;;;;;;24.10;12.93;;;7.50;99.90;;;;;;5074152;28;20484;-74
2022/01/29 00:17:25;;;;;;;24.33;14.23;;;7.50;99.90;;;;;;5091044;28;20389;-75
2022/01/29 00:19:51;;;;;;;20.65;10.35;;;7.40;99.90;;;;;;5091875;28;20400;-74
2022/01/29 00:22:16;;;;;;;24.63;12.35;;;7.50;99.90;;;;;;5090725;28;20032;-74
2022/01/29 00:24:43;;;;;;;17.13;10.65;;;7.50;99.90;;;;;;5090842;28;20212;-74
2022/01/29 00:27:10;;;;;;;26.02;14.82;;;7.50;99.90;;;;;;5094531;28;20071;-74
2022/01/29 00:29:39;;;;;;;20.60;11.63;;;7.50;99.90;;;;;;5077568;28;20039;-74
2022/01/29 00:32:06;;;;;;;23.88;13.85;;;7.60;99.90;;;;;;5078262;28;20039;-74
2022/01/29 00:34:32;;;;;;;27.15;12.80;;;7.40;99.90;;;;;;5077616;28;20055;-74
2022/01/29 00:36:58;;;;;;;18.05;8.57;;;7.40;99.90;;;;;;5094600;28;20029;-75
2022/01/29 00:39:23;;;;;;;20.05;10.40;;;7.50;99.90;;;;;;5095114;28;20440;-74
2022/01/29 00:41:49;;;;;;;21.27;12.98;;;7.50;99.90;;;;;;5074653;28;20036;-75
2022/01/29 00:44:15;;;;;;;21.55;14.80;;;7.40;99.90;;;;;;5078188;28;20481;-74
2022/01/29 00:46:41;;;;;;;14.70;9.27;;;7.50;99.90;;;;;;5075958;28;20035;-74
2022/01/29 00:49:12;;;;;;;21.85;13.85;;;7.50;99.90;;;;;;5095147;28;20071;-74
2022/01/29 00:51:38;;;;;;;26.45;14.95;;;7.30;99.90;;;;;;5072046;28;20037;-74
2022/01/29 00:54:04;;;;;;;23.48;15.80;;;7.40;99.90;;;;;;5057866;28;20076;-74
2022/01/29 00:56:30;;;;;;;18.95;12.27;;;7.40;99.90;;;;;;5056456;28;20059;-74
2022/01/29 00:58:56;;;;;;;20.35;11.60;;;7.30;99.90;;;;;;5073646;28;20089;-74
2022/01/29 01:01:21;;;;;;;27.45;14.52;;;7.40;99.90;;;;;;5057677;28;20040;-74
2022/01/29 01:03:47;;;;;;;14.73;8.18;;;7.50;99.90;;;;;;5073499;28;20443;-74
2022/01/29 01:06:13;;;;;;;20.23;9.85;;;7.40;99.90;;;;;;5073101;28;20541;-74
2022/01/29 01:08:38;;;;;;;23.50;15.82;;;7.50;99.90;;;;;;5056981;28;20045;-74
2022/01/29 01:11:05;;;;;;;20.65;12.80;;;7.40;99.90;;;;;;5057568;28;20089;-74
2022/01/29 01:13:33;;;;;;;23.77;14.82;;;7.40;99.90;;;;;;5068649;28;20048;-74
2022/01/29 01:15:59;;;;;;;24.73;15.70;;;7.30;99.90;;;;;;5073187;28;20043;-74
2022/01/29 01:18:24;;;;;;;14.27;8.38;;;7.40;99.90;;;;;;5073412;28;20392;-74
2022/01/29 01:20:50;;;;;;;22.48;15.75;;;7.40;99.90;;;;;;5073134;28;20109;-74
2022/01/29 01:23:16;;;;;;;19.15;10.63;;;7.50;99.90;;;;;;5057581;28;20370;-74
2022/01/29 01:25:42;;;;;;;17.23;9.38;;;7.60;99.90;;;;;;5073269;28;20094;-74
2022/01/29 01:28:08;;;;;;;23.35;15.00;;;7.50;99.90;;;;;;5057583;28;20481;-74
2022/01/29 01:30:35;;;;;;;21.05;11.35;;;7.40;99.90;;;;;;5072897;28;20041;-74
2022/01/29 01:33:02;;;;;;;16.73;10.38;;;7.40;99.90;;;;;;5057155;28;20044;-74
2022/01/29 01:35:53;;;;;;;16.85;9.27;;;7.40;99.90;;;;;;5055773;28;20489;-74
2022/01/29 01:38:19;;;;;;;16.52;10.40;;;7.50;99.90;;;;;;5072766;28;20044;-74
2022/01/29 01:40:50;;;;;;;21.65;11.95;;;7.60;99.90;;;;;;5056164;28;20036;-74
2022/01/29 01:43:16;;;;;;;27.23;15.27;;;7.60;99.90;;;;;;5073973;28;20071;-74
2022/01/29 01:45:43;;;;;;;22.65;13.13;;;7.50;99.90;;;;;;5072769;28;20500;-74
2022/01/29 01:48:09;;;;;;;18.75;9.65;;;7.50;99.90;;;;;;5057179;28;20433;-74
2022/01/29 01:50:35;;;;;;;23.30;13.68;;;7.50;99.90;;;;;;5084241;28;20056;-74
2022/01/29 01:53:02;;;;;;;18.58;9.57;;;7.50;99.90;;;;;;5093632;28;20036;-74
2022/01/29 01:55:28;;;;;;;25.25;13.07;;;7.50;99.90;;;;;;5075795;28;20047;-74
2022/01/29 01:57:54;;;;;;;27.42;13.35;;;7.80;99.90;;;;;;5076741;28;20028;-74
2022/01/29 02:00:20;;;;;;;27.00;14.93;;;7.80;99.90;;;;;;5091939;28;20069;-74
2022/01/29 02:02:46;;;;;;;24.90;13.80;;;7.70;99.90;;;;;;5076520;28;20043;-74
2022/01/29 02:05:12;;;;;;;24.15;14.32;;;7.70;99.90;;;;;;5092218;28;20484;-74
2022/01/29 02:07:38;;;;;;;25.17;12.75;;;7.80;99.90;;;;;;5076550;28;20075;-74
2022/01/29 02:10:08;;;;;;;29.30;14.45;;;7.80;99.90;;;;;;5091088;28;20473;-73
2022/01/29 02:12:50;;;;;;;27.42;12.65;;;7.70;99.90;;;;;;5072939;28;20044;-74
2022/01/29 02:15:18;;;;;;;28.52;15.85;;;7.90;99.90;;;;;;5086326;28;20032;-74
2022/01/29 02:17:45;;;;;;;24.83;12.68;;;7.70;99.90;;;;;;5093229;28;20047;-74
2022/01/29 02:20:12;;;;;;;20.67;11.15;;;7.80;99.90;;;;;;5074464;28;20064;-74
2022/01/29 02:22:42;;;;;;;20.80;11.05;;;7.90;99.90;;;;;;5093253;28;20098;-74
2022/01/29 02:25:39;;;;;;;18.45;8.35;;;7.80;99.90;;;;;;5075540;28;20044;-74
2022/01/29 02:28:09;;;;;;;20.50;11.30;;;7.90;99.90;;;;;;5093133;28;20046;-74
2022/01/29 02:30:36;;;;;;;23.42;14.43;;;8.00;99.90;;;;;;5090864;28;20024;-74
2022/01/29 02:33:05;;;;;;;19.77;10.95;;;7.90;99.90;;;;;;5092780;28;20507;-74
2022/01/29 02:35:31;;;;;;;26.85;12.65;;;7.90;99.90;;;;;;5075256;28;20036;-74
2022/01/29 02:37:57;;;;;;;23.17;10.25;;;7.90;99.90;;;;;;5076229;28;20097;-74
2022/01/29 02:40:23;;;;;;;30.02;16.50;;;7.90;99.90;;;;;;5074235;28;20028;-74
2022/01/29 02:42:52;;;;;;;21.45;12.38;;;7.90;99.90;;;;;;5074245;28;20035;-75
2022/01/29 02:45:17;;;;;;;23.02;13.93;;;7.90;99.90;;;;;;5092709;28;20511;-74
2022/01/29 02:47:43;;;;;;;15.43;8.32;;;7.90;99.90;;;;;;5074581;28;20036;-75
2022/01/29 02:50:09;;;;;;;29.80;14.73;;;7.90;99.90;;;;;;5091958;28;20052;-74
2022/01/29 02:52:35;;;;;;;27.90;14.35;;;8.00;99.90;;;;;;5091931;28;20536;-74
2022/01/29 02:55:01;;;;;;;32.10;16.15;;;8.00;99.90;;;;;;5091758;28;20488;-74
2022/01/29 02:57:27;;;;;;;27.88;15.40;;;8.00;99.90;;;;;;5074884;28;20040;-75
2022/01/29 02:59:55;;;;;;;30.55;15.15;;;8.00;99.90;;;;;;5092579;28;20516;-74
2022/01/29 03:02:20;;;;;;;31.85;15.85;;;7.90;99.90;;;;;;5091318;28;20036;-74
2022/01/29 03:04:46;;;;;;;26.70;13.52;;;7.90;99.90;;;;;;5091422;28;20492;-74
2022/01/29 03:07:11;;;;;;;31.95;15.02;;;7.90;99.90;;;;;;5074729;28;20076;-75
2022/01/29 03:09:37;;;;;;;29.17;13.63;;;7.90;99.90;;;;;;5092265;28;20043;-74
2022/01/29 03:12:03;;;;;;;28.40;15.75;;;8.10;99.90;;;;;;5091375;28;20083;-75
2022/01/29 03:14:28;;;;;;;30.27;15.43;;;8.00;99.90;;;;;;5075407;28;20085;-75
2022/01/29 03:16:54;;;;;;;28.17;14.48;;;8.10;99.90;;;;;;5091650;28;20039;-75
2022/01/29 03:19:19;;;;;;;26.38;14.35;;;8.00;99.90;;;;;;5073632;28;20111;-75
2022/01/29 03:21:45;;;;;;;32.75;17.17;;;8.10;99.90;;;;;;5091141;28;20074;-75
2022/01/29 03:24:10;;;;;;;27.23;16.25;;;8.10;99.90;;;;;;5075290;28;20405;-75
2022/01/29 03:26:36;;;;;;;30.88;15.80;;;8.00;99.90;;;;;;5091491;28;20035;-75
2022/01/29 03:29:02;;;;;;;27.35;14.82;;;8.10;99.90;;;;;;5092380;28;20044;-75
2022/01/29 03:31:29;;;;;;;32.13;15.82;;;8.00;99.90;;;;;;5090974;28;20040;-75
2022/01/29 03:33:54;;;;;;;27.83;15.65;;;8.10;99.90;;;;;;5075055;28;20127;-75
2022/01/29 03:36:20;;;;;;;24.50;14.38;;;8.00;99.90;;;;;;5091025;28;20075;-75
2022/01/29 03:38:45;;;;;;;32.03;14.05;;;8.10;99.90;;;;;;5091895;28;20036;-75
2022/01/29 03:41:13;;;;;;;22.67;10.48;;;8.20;99.90;;;;;;5091019;28;20032;-75
2022/01/29 03:43:49;;;;;;;24.35;12.70;;;8.30;99.90;;;;;;5073150;28;20043;-75
2022/01/29 03:46:15;;;;;;;22.17;12.00;;;8.30;99.90;;;;;;5086660;28;20040;-75
2022/01/29 03:48:40;;;;;;;23.58;12.77;;;8.30;99.90;;;;;;5091394;28;20043;-75
2022/01/29 03:51:06;;;;;;;27.45;15.18;;;8.30;99.90;;;;;;5090561;28;20205;-75
2022/01/29 03:53:32;;;;;;;30.45;15.45;;;8.20;99.90;;;;;;5074537;28;20039;-75
2022/01/29 03:55:58;;;;;;;30.40;16.20;;;8.20;99.90;;;;;;5055040;28;20492;-75
2022/01/29 03:58:23;;;;;;;22.67;10.45;;;8.20;99.90;;;;;;5086180;28;20040;-74
2022/01/29 04:00:49;;;;;;;32.80;19.00;;;8.30;99.90;;;;;;5093866;28;20391;-75
2022/01/29 04:03:14;;;;;;;28.17;18.15;;;8.30;99.90;;;;;;5079094;28;20156;-75
2022/01/29 04:05:40;;;;;;;31.90;17.92;;;8.30;99.90;;;;;;5094722;28;20039;-75
2022/01/29 04:08:13;;;;;;;25.17;13.05;;;8.30;99.90;;;;;;5096151;28;20079;-75
2022/01/29 04:10:39;;;;;;;28.98;14.85;;;8.30;99.90;;;;;;5094208;28;20046;-75
2022/01/29 04:13:05;;;;;;;23.88;14.43;;;8.30;99.90;;;;;;5095535;28;20036;-74
2022/01/29 04:15:31;;;;;;;27.13;15.25;;;8.30;99.90;;;;;;5077895;28;20036;-74
2022/01/29 04:17:56;;;;;;;22.77;13.45;;;8.20;99.90;;;;;;5095807;28;20028;-74
2022/01/29 04:20:22;;;;;;;20.17;12.05;;;8.30;99.90;;;;;;5077742;28;20032;-75
2022/01/29 04:22:48;;;;;;;27.70;13.88;;;8.40;99.90;;;;;;5078474;28;20119;-74
2022/01/29 04:25:13;;;;;;;27.38;14.18;;;8.30;99.90;;;;;;5073614;28;20123;-75
2022/01/29 04:27:42;;;;;;;24.05;13.23;;;8.20;99.90;;;;;;5076522;28;20055;-75
2022/01/29 04:30:26;;;;;;;19.27;11.75;;;8.50;99.90;;;;;;5077037;28;20028;-75
2022/01/29 04:35:18;;;;;;;25.10;13.00;;;8.40;99.90;;;;;;5087852;28;20105;-75
2022/01/29 04:37:44;;;;;;;23.58;11.73;;;8.30;99.90;;;;;;5095136;28;20129;-75
2022/01/29 04:40:10;;;;;;;25.80;14.70;;;8.40;99.90;;;;;;5083973;28;20096;-75
2022/01/29 04:42:36;;;;;;;28.90;14.35;;;8.30;99.90;;;;;;5065300;28;20068;-75
2022/01/29 04:45:02;;;;;;;23.45;13.48;;;8.40;99.90;;;;;;5065574;28;20159;-75
2022/01/29 04:47:27;;;;;;;24.88;13.30;;;8.50;99.90;;;;;;5081937;28;20480;-75
2022/01/29 04:49:53;;;;;;;25.58;14.10;;;8.50;99.90;;;;;;5086890;28;20068;-75
2022/01/29 04:52:18;;;;;;;20.48;10.88;;;8.30;99.90;;;;;;5075897;28;20036;-75
2022/01/29 04:54:44;;;;;;;27.10;12.82;;;8.50;99.90;;;;;;5066662;28;20033;-75
2022/01/29 04:57:10;;;;;;;24.30;12.70;;;8.40;99.90;;;;;;5093259;28;20101;-75
2022/01/29 04:59:35;;;;;;;21.30;12.35;;;8.40;99.90;;;;;;5093390;28;20047;-75
2022/01/29 05:02:01;;;;;;;17.00;9.68;;;8.50;99.90;;;;;;5093848;28;20028;-75
2022/01/29 05:04:26;;;;;;;23.27;10.70;;;8.60;99.90;;;;;;5074399;28;20137;-75
2022/01/29 05:06:52;;;;;;;24.02;13.73;;;8.50;99.90;;;;;;5075582;28;20464;-74
2022/01/29 05:09:17;;;;;;;25.73;14.40;;;8.50;99.90;;;;;;5076925;28;20135;-75
2022/01/29 05:11:46;;;;;;;19.65;11.80;;;8.40;99.90;;;;;;5075327;28;20131;-75
2022/01/29 05:14:20;;;;;;;21.48;11.95;;;8.60;99.90;;;;;;5087704;28;20037;-75
2022/01/29 05:26:50;;;;;;;26.00;12.73;;;8.60;99.90;;;;;;5093744;28;20079;-75
2022/01/29 05:27:49;;;;;;;20.45;12.32;;;8.60;99.90;;;;;;5092433;28;20036;-75
2022/01/29 05:30:15;;;;;;;23.08;11.80;;;8.60;99.90;;;;;;5075801;28;20386;-75
2022/01/29 05:32:40;;;;;;;21.13;11.50;;;8.60;99.90;;;;;;5093342;28;20496;-75
2022/01/29 05:35:06;;;;;;;16.20;8.52;;;8.60;99.90;;;;;;5074010;28;20062;-75
2022/01/29 05:37:32;;;;;;;22.13;12.18;;;8.70;99.90;;;;;;5074713;28;20428;-75
2022/01/29 05:39:57;;;;;;;21.70;13.07;;;8.70;99.90;;;;;;5091366;28;20749;-75
2022/01/29 05:42:23;;;;;;;16.92;9.20;;;8.60;99.90;;;;;;5089809;28;20028;-75
2022/01/29 05:44:48;;;;;;;18.40;11.25;;;8.60;99.90;;;;;;5076377;28;20042;-75
2022/01/29 05:47:14;;;;;;;23.00;11.85;;;8.60;99.90;;;;;;5077235;28;20135;-75
2022/01/29 05:49:39;;;;;;;20.98;11.77;;;8.60;99.90;;;;;;5074407;28;20511;-75
2022/01/29 05:52:05;;;;;;;19.63;11.30;;;8.80;99.90;;;;;;5093691;28;20124;-75
2022/01/29 05:54:31;;;;;;;21.95;12.23;;;8.80;99.90;;;;;;5092816;28;20036;-75
2022/01/29 05:56:57;;;;;;;20.92;10.40;;;8.70;99.90;;;;;;5076654;28;20035;-75
2022/01/29 05:59:22;;;;;;;24.02;12.57;;;8.70;99.90;;;;;;5091658;28;20396;-75
2022/01/29 06:01:48;;;;;;;17.85;9.40;;;8.70;99.90;;;;;;5074439;28;20057;-75
2022/01/29 06:04:14;;;;;;;17.08;11.10;;;8.70;99.90;;;;;;5091767;28;20537;-75
2022/01/29 06:06:39;;;;;;;20.88;12.05;;;8.70;99.90;;;;;;5076628;28;20040;-75
2022/01/29 06:09:05;;;;;;;21.77;10.07;;;8.80;99.90;;;;;;5092647;28;20050;-75
2022/01/29 06:11:34;;;;;;;21.77;11.80;;;8.90;99.90;;;;;;5093385;28;20408;-75
2022/01/29 06:14:01;;;;;;;22.42;13.18;;;8.80;99.90;;;;;;5091024;28;20569;-75
2022/01/29 06:16:27;;;;;;;16.90;8.55;;;8.80;99.90;;;;;;5093312;28;20040;-75
2022/01/29 06:18:52;;;;;;;16.35;9.00;;;8.90;99.90;;;;;;5092521;28;20040;-75
2022/01/29 06:21:18;;;;;;;16.58;8.63;;;8.90;99.90;;;;;;5076032;28;20115;-76
2022/01/29 06:23:44;;;;;;;18.40;10.68;;;8.90;99.90;;;;;;5075550;28;20404;-75
2022/01/29 06:26:11;;;;;;;16.30;9.88;;;8.90;99.90;;;;;;5075958;28;20032;-75
2022/01/29 06:28:38;;;;;;;21.13;10.80;;;9.00;99.90;;;;;;5093038;28;20123;-75
2022/01/29 06:31:05;;;;;;;16.70;10.13;;;9.00;99.90;;;;;;5092131;28;20044;-75
2022/01/29 06:33:31;;;;;;;17.95;9.48;;;9.00;99.90;;;;;;5092932;28;20044;-75
2022/01/29 06:35:57;;;;;;;18.25;10.35;;;9.00;99.90;;;;;;5092308;28;20385;-75
2022/01/29 06:38:23;;;;;;;23.55;12.05;;;9.00;99.90;;;;;;5075326;28;20043;-75
2022/01/29 06:40:49;;;;;;;19.15;10.90;;;8.90;99.90;;;;;;5090904;28;20036;-75
2022/01/29 06:43:14;;;;;;;17.27;10.77;;;8.90;99.90;;;;;;5073297;28;20040;-75
2022/01/29 06:45:42;;;;;;;17.73;10.57;;;9.00;99.90;;;;;;5088881;28;20036;-75
2022/01/29 06:48:08;;;;;;;17.60;10.15;;;8.90;99.90;;;;;;5072988;28;20051;-75
2022/01/29 06:50:34;;;;;;;19.80;10.35;;;8.90;99.90;;;;;;5088595;28;20087;-75
2022/01/29 06:53:00;;;;;;;18.35;9.75;;;9.10;99.90;;;;;;5072168;28;20051;-75
2022/01/29 06:55:26;;;;;;;17.48;9.35;;;9.00;99.90;;;;;;5072529;28;20040;-75
2022/01/29 06:57:52;;;;;;;17.70;10.73;;;8.90;99.90;;;;;;5090085;28;20039;-75
2022/01/29 07:00:18;;;;;;;16.50;9.80;;;9.00;99.90;;;;;;5090935;28;20043;-75
2022/01/29 07:02:43;;;;;;;19.05;10.45;;;9.00;99.90;;;;;;5087578;28;20031;-75
2022/01/29 07:05:11;;;;;;;13.55;8.25;;;8.90;99.90;;;;;;5072457;28;20047;-75
2022/01/29 07:07:36;;;;;;;19.23;10.85;;;9.00;99.90;;;;;;5075353;28;20039;-75
2022/01/29 07:10:03;;;;;;;16.58;10.63;;;9.00;99.90;;;;;;5063994;28;20028;-75
2022/01/29 07:12:29;;;;;;;11.98;7.53;;;9.00;99.90;;;;;;5090364;28;20038;-75
2022/01/29 07:14:54;;;;;;;18.40;9.85;;;8.90;99.90;;;;;;5073579;28;20110;-75
2022/01/29 07:17:22;;;;;;;16.15;8.48;;;9.00;99.90;;;;;;5091175;28;20039;-75
2022/01/29 07:19:52;;;;;;;21.90;11.55;;;9.00;99.90;;;;;;5088968;28;20142;-75
2022/01/29 07:22:18;;;;;;;16.38;9.70;;;9.00;99.90;;;;;;5072750;28;20488;-75
2022/01/29 07:24:46;;;;;;;17.27;9.85;;;9.00;99.90;;;;;;5070460;28;20119;-74
2022/01/29 07:27:12;;;;;;;21.63;10.35;;;9.00;99.90;;;;;;5074355;28;20043;-75
2022/01/29 07:29:38;;;;;;;20.00;9.75;;;8.90;99.90;;;;;;5091062;28;20077;-74
2022/01/29 07:32:04;;;;;;;17.42;9.45;;;8.90;99.90;;;;;;5074109;28;20415;-75
2022/01/29 07:34:29;;;;;;;16.48;10.13;;;9.00;99.90;;;;;;5074004;28;20123;-74
2022/01/29 07:36:57;;;;;;;15.25;9.30;;;9.00;99.90;;;;;;5091387;28;20476;-74
2022/01/29 07:39:24;;;;;;;11.35;5.80;;;9.00;99.90;;;;;;5088485;28;20032;-74
2022/01/29 07:41:51;;;;;;;15.68;8.23;;;9.10;99.90;;;;;;5074747;28;20040;-74
2022/01/29 07:44:17;;;;;;;15.90;9.55;;;9.20;99.90;;;;;;5090557;28;20403;-74
2022/01/29 07:46:43;;;;;;;12.82;7.07;;;9.00;99.90;;;;;;5074617;28;20047;-74
2022/01/29 07:49:09;;;;;;;16.70;8.98;;;9.00;99.90;;;;;;5091191;28;20059;-74
2022/01/29 07:51:35;;;;;;;13.27;7.65;;;8.90;99.90;;;;;;5091467;28;20500;-75
2022/01/29 07:54:01;;;;;;;14.05;7.00;;;9.00;99.90;;;;;;5073603;28;20040;-74
2022/01/29 07:56:26;;;;;;;15.95;10.32;;;8.90;99.90;;;;;;5074538;28;20036;-74
2022/01/29 07:58:52;;;;;;;15.90;8.23;;;8.90;99.90;;;;;;5067077;28;20099;-74
2022/01/29 08:01:18;;;;;;;18.77;10.18;;;9.00;99.90;;;;;;5089801;28;20404;-75
2022/01/29 08:03:48;;;;;;;15.63;8.70;;;8.90;99.90;;;;;;5091423;28;20048;-74
2022/01/29 08:06:15;;;;;;;17.20;9.00;;;8.90;99.90;;;;;;5090834;28;20424;-74
2022/01/29 08:08:40;;;;;;;15.00;8.32;;;9.00;99.90;;;;;;5074124;28;20044;-74
2022/01/29 08:11:07;;;;;;;14.23;8.45;;;9.00;99.90;;;;;;5090801;28;20051;-74
2022/01/29 08:13:33;;;;;;;19.35;9.23;;;9.00;99.90;;;;;;5090495;28;20044;-75
2022/01/29 08:15:59;;;;;;;16.73;9.40;;;9.00;99.90;;;;;;5091141;28;20040;-74
2022/01/29 08:18:25;;;;;;;18.23;9.25;;;9.10;99.90;;;;;;5090833;28;20032;-74
2022/01/29 08:20:50;;;;;;;15.43;9.45;;;9.20;99.90;;;;;;5090841;28;20059;-74
2022/01/29 08:23:16;;;;;;;10.13;5.22;;;9.10;99.90;;;;;;5090279;28;20044;-74
2022/01/29 08:25:41;;;;;;;16.65;8.50;;;9.10;99.90;;;;;;5074254;28;20088;-74
2022/01/29 08:28:07;;;;;;;19.45;9.30;;;9.10;99.90;;;;;;5073888;28;20063;-74
2022/01/29 08:30:34;;;;;;;13.55;5.97;;;9.10;99.90;;;;;;5073884;28;20553;-75
2022/01/29 08:33:00;;;;;;;16.08;9.60;;;9.30;99.90;;;;;;5072570;28;20047;-75
2022/01/29 08:35:26;;;;;;;19.13;8.75;;;9.20;99.90;;;;;;5074171;28;20040;-74
2022/01/29 08:37:51;;;;;;;17.38;8.98;;;9.10;99.90;;;;;;5073133;28;20040;-74
2022/01/29 08:40:17;;;;;;;16.45;8.40;;;9.10;99.90;;;;;;5073519;28;20028;-74
2022/01/29 08:42:43;;;;;;;19.58;9.63;;;9.20;99.90;;;;;;5090919;28;20382;-75
2022/01/29 08:45:09;;;;;;;14.52;8.68;;;9.10;99.90;;;;;;5073814;28;20119;-74
2022/01/29 08:47:35;;;;;;;14.30;7.68;;;9.10;99.90;;;;;;5094565;28;20051;-75
2022/01/29 08:50:03;;;;;;;14.55;8.23;;;9.30;99.90;;;;;;5093254;28;20060;-75
2022/01/29 08:52:32;;;;;;;17.70;9.40;;;9.20;99.90;;;;;;5092944;28;20123;-75
2022/01/29 08:54:58;;;;;;;13.85;7.57;;;9.10;99.90;;;;;;5089740;28;20043;-75
2022/01/29 08:57:24;;;;;;;13.50;7.78;;;9.20;99.90;;;;;;5080313;28;20040;-75
2022/01/29 08:59:49;;;;;;;13.40;6.05;;;9.30;99.90;;;;;;5091129;28;20059;-75
2022/01/29 09:02:15;;;;;;;12.57;6.22;;;9.40;99.90;;;;;;5076608;28;20040;-74
2022/01/29 09:04:41;;;;;;;15.55;6.97;;;9.50;99.90;;;;;;5073055;28;20510;-75
2022/01/29 09:07:08;;;;;;;11.40;4.32;;;9.40;99.90;;;;;;5092007;28;20036;-75
2022/01/29 09:09:33;;;;;;;15.55;6.35;;;9.40;99.90;;;;;;5075462;28;20127;-75
2022/01/29 09:12:01;;;;;;;16.73;5.72;;;9.50;99.90;;;;;;5091921;28;20158;-75
2022/01/29 09:14:26;;;;;;;7.70;3.88;;;9.50;99.90;;;;;;5092837;28;20455;-75
2022/01/29 09:16:52;;;;;;;12.70;5.60;;;9.60;99.90;;;;;;5091354;28;20040;-75
2022/01/29 09:19:17;;;;;;;12.38;4.78;;;9.60;99.90;;;;;;5092698;28;20044;-75
2022/01/29 09:21:43;;;;;;;12.63;5.38;;;9.70;99.90;;;;;;5074803;28;20094;-75
2022/01/29 09:24:08;;;;;;;9.85;4.50;;;9.70;99.90;;;;;;5072415;28;20044;-75
2022/01/29 09:26:34;;;;;;;11.30;5.40;;;9.70;99.90;;;;;;5075660;28;20485;-75
2022/01/29 09:29:00;;;;;;;11.30;5.32;;;9.70;99.90;;;;;;5090590;28;20039;-75
2022/01/29 09:31:25;;;;;;;13.25;5.18;;;9.70;99.90;;;;;;5075059;28;20131;-75
2022/01/29 09:33:51;;;;;;;9.20;4.07;;;9.70;99.90;;;;;;5090971;28;20086;-75
2022/01/29 09:36:16;;;;;;;14.50;5.15;;;9.70;99.90;;;;;;5091776;28;20028;-75
2022/01/29 09:38:42;;;;;;;14.60;5.65;;;9.70;99.90;;;;;;5090784;28;20089;-75
2022/01/29 09:41:09;;;;;;;11.90;4.60;;;9.70;99.90;;;;;;5074656;28;20472;-74
2022/01/29 09:43:35;;;;;;;12.18;4.50;;;9.70;99.90;;;;;;5090745;28;20147;-75
2022/01/29 09:46:01;;;;;;;12.70;5.00;;;9.80;99.90;;;;;;5093050;28;20572;-75
2022/01/29 09:48:28;;;;;;;10.35;3.55;;;9.80;99.90;;;;;;5074530;28;20044;-75
2022/01/29 09:50:57;;;;;;;11.55;4.68;;;9.80;99.90;;;;;;5092925;28;20496;-75
2022/01/29 09:53:23;;;;;;;10.75;4.45;;;9.90;99.90;;;;;;5074218;28;20044;-74
2022/01/29 09:55:49;;;;;;;9.65;3.97;;;9.90;99.90;;;;;;5076045;28;20039;-75
2022/01/29 09:58:15;;;;;;;8.70;3.40;;;10.00;99.90;;;;;;5075730;28;20115;-75
2022/01/29 10:00:41;;;;;;;10.65;4.45;;;10.00;99.90;;;;;;5072930;28;20162;-75
2022/01/29 10:03:09;;;;;;;10.07;3.90;;;9.90;99.90;;;;;;5073547;28;20159;-75
2022/01/29 10:06:03;;;;;;;10.25;3.97;;;10.00;99.90;;;;;;5081496;28;20054;-75
2022/01/29 10:08:40;;;;;;;10.27;3.97;;;9.90;99.90;;;;;;5084104;28;20104;-75
2022/01/29 10:11:18;;;;;;;12.25;3.35;;;9.90;99.90;;;;;;5092548;28;20044;-75
2022/01/29 10:13:44;;;;;;;11.40;4.25;;;10.00;99.90;;;;;;5074757;28;20048;-75
2022/01/29 10:16:19;;;;;;;10.15;3.85;;;10.00;99.90;;;;;;5074578;28;20548;-75
2022/01/29 10:19:03;;;;;;;10.65;4.03;;;10.10;99.90;;;;;;5089171;28;20050;-75
2022/01/29 10:21:32;;;;;;;8.88;3.45;;;10.00;99.90;;;;;;5073806;28;20040;-75
2022/01/29 10:24:07;;;;;;;9.07;3.80;;;10.00;99.90;;;;;;5074824;28;20058;-75
2022/01/29 10:26:38;;;;;;;11.13;3.88;;;10.00;99.90;;;;;;5072763;28;20036;-75
2022/01/29 10:29:07;;;;;;;10.07;3.77;;;10.10;99.90;;;;;;5073501;28;20043;-75
2022/01/29 10:31:44;;;;;;;10.48;2.72;;;10.00;99.90;;;;;;5073920;28;20693;-75
2022/01/29 10:34:29;;;;;;;7.75;3.38;;;10.10;99.90;;;;;;5090113;28;20127;-75
2022/01/29 10:37:17;;;;;;;9.65;3.03;;;10.10;99.90;;;;;;5072632;28;20036;-75
2022/01/29 10:40:01;;;;;;;7.25;3.15;;;10.20;99.90;;;;;;5085373;28;20032;-75
2022/01/29 10:42:35;;;;;;;10.32;3.50;;;10.20;99.90;;;;;;5072891;28;20035;-75
2022/01/29 10:45:04;;;;;;;9.07;2.53;;;10.10;99.90;;;;;;5057694;28;20056;-75
2022/01/29 10:47:31;;;;;;;12.45;3.17;;;10.20;99.90;;;;;;5090517;28;20087;-75
2022/01/29 10:50:02;;;;;;;9.18;3.28;;;10.10;99.90;;;;;;5090792;28;20052;-75
2022/01/29 10:52:28;;;;;;;9.27;2.80;;;10.10;99.90;;;;;;5087513;28;20040;-75
2022/01/29 10:54:59;;;;;;;10.00;3.28;;;10.10;99.90;;;;;;5090469;28;20047;-75
2022/01/29 10:57:39;;;;;;;9.93;3.20;;;10.00;99.90;;;;;;5069434;28;20472;-75
2022/01/29 11:00:22;;;;;;;7.40;2.45;;;10.00;99.90;;;;;;5075196;28;20404;-75
2022/01/29 11:02:49;;;;;;;12.43;2.90;;;10.10;99.90;;;;;;5089079;28;20043;-75
2022/01/29 11:05:15;;;;;;;9.82;2.63;;;10.10;99.90;;;;;;5090470;28;20040;-75
2022/01/29 11:07:50;;;;;;;8.63;2.22;;;10.20;99.90;;;;;;5091022;28;20071;-75
2022/01/29 11:10:16;;;;;;;11.18;2.78;;;10.20;99.90;;;;;;5074562;28;20573;-75
2022/01/29 11:12:48;;;;;;;10.98;2.88;;;10.10;99.90;;;;;;5091270;28;20046;-75
2022/01/29 11:15:18;;;;;;;10.77;2.83;;;10.20;99.90;;;;;;5069263;28;20044;-75
2022/01/29 11:17:45;;;;;;;9.73;2.50;;;10.10;99.90;;;;;;5074337;28;20484;-75
2022/01/29 11:20:11;;;;;;;8.15;2.67;;;10.20;99.90;;;;;;5090303;28;20036;-81
2022/01/29 11:22:41;;;;;;;10.35;3.05;;;10.10;99.90;;;;;;5091753;28;20036;-74
2022/01/29 11:25:31;;;;;;;9.05;2.63;;;10.10;99.90;;;;;;5090011;28;20048;-74
2022/01/29 11:28:29;;;;;;;9.55;2.50;;;10.20;99.90;;;;;;5073789;28;20040;-74
2022/01/29 11:31:10;;;;;;;12.13;2.15;;;10.20;99.90;;;;;;5043598;28;20089;-74
2022/01/29 11:33:58;;;;;;;9.63;2.75;;;10.20;99.90;;;;;;5071431;28;20079;-74
2022/01/29 11:36:50;;;;;;;8.73;2.33;;;10.10;99.90;;;;;;5089432;28;20127;-74
2022/01/29 11:39:24;;;;;;;7.93;2.38;;;10.20;99.90;;;;;;5043677;28;20051;-74
2022/01/29 11:42:12;;;;;;;9.77;2.25;;;10.20;99.90;;;;;;5077266;28;20032;-74
2022/01/29 11:44:38;;;;;;;8.35;2.15;;;10.30;99.90;;;;;;5082743;28;20572;-74
2022/01/29 11:47:27;;;;;;;8.63;2.28;;;10.30;99.90;;;;;;5073249;28;20519;-74
2022/01/29 11:50:12;;;;;;;8.95;2.17;;;10.30;99.90;;;;;;5062736;28;20469;-74
2022/01/29 11:52:55;;;;;;;7.93;1.85;;;10.40;99.90;;;;;;5090853;28;20408;-74
2022/01/29 11:55:34;;;;;;;8.43;2.22;;;10.50;99.90;;;;;;5068354;28;20052;-74
2022/01/29 11:58:16;;;;;;;9.52;2.20;;;10.60;99.90;;;;;;5091420;28;20036;-74
2022/01/29 12:00:42;;;;;;;7.00;1.90;;;10.40;99.90;;;;;;5088471;28;20047;-74
2022/01/29 12:03:38;;;;;;;11.88;1.73;;;10.40;99.90;;;;;;5071292;28;20294;-74
2022/01/29 12:06:08;;;;;;;6.85;1.80;;;10.50;99.90;;;;;;5070250;28;20385;-74
2022/01/29 12:08:39;;;;;;;7.88;2.10;;;10.50;99.90;;;;;;5076450;28;20051;-74
2022/01/29 12:11:12;;;;;;;5.63;1.50;;;10.50;99.90;;;;;;5083615;28;20044;-74
2022/01/29 12:13:40;;;;;;;8.02;1.80;;;10.60;99.90;;;;;;5087033;28;20555;-74
2022/01/29 12:16:08;;;;;;;7.65;1.73;;;10.50;99.90;;;;;;5071482;28;20377;-74
2022/01/29 12:18:35;;;;;;;9.57;1.77;;;10.60;99.90;;;;;;5071462;28;20028;-73
2022/01/29 12:21:04;;;;;;;8.90;1.88;;;10.60;99.90;;;;;;5090022;28;20062;-74
2022/01/29 12:23:44;;;;;;;8.30;1.90;;;10.60;99.90;;;;;;5091896;28;20051;-74
2022/01/29 12:26:09;;;;;;;13.45;2.10;;;10.60;99.90;;;;;;5093328;28;20044;-74
2022/01/29 12:28:35;;;;;;;10.73;2.00;;;10.60;99.90;;;;;;5092627;28;20115;-74
2022/01/29 12:31:04;;;;;;;6.03;1.60;;;10.60;99.90;;;;;;5077732;28;20051;-74
2022/01/29 12:33:31;;;;;;;10.55;2.00;;;10.70;99.90;;;;;;5076164;28;20044;-74
2022/01/29 12:36:01;;;;;;;8.48;1.70;;;10.80;99.90;;;;;;5078571;28;20045;-74
2022/01/29 12:38:34;;;;;;;8.00;1.70;;;10.80;99.90;;;;;;5075975;28;20036;-74
2022/01/29 12:41:12;;;;;;;10.10;2.17;;;10.70;99.90;;;;;;5093613;28;20115;-74
2022/01/29 12:43:58;;;;;;;7.15;1.73;;;10.70;99.90;;;;;;5075715;28;20127;-74
2022/01/29 12:46:26;;;;;;;8.10;1.58;;;10.80;99.90;;;;;;5092640;28;20128;-74
2022/01/29 12:49:00;;;;;;;9.10;1.52;;;10.80;99.90;;;;;;5092596;28;20085;-74
2022/01/29 12:51:26;;;;;;;5.88;1.88;;;10.70;99.90;;;;;;5077481;28;20385;-74
2022/01/29 12:54:04;;;;;;;9.13;2.30;;;10.80;99.90;;;;;;5077103;28;20097;-74
2022/01/29 12:56:33;;;;;;;7.22;1.67;;;10.80;99.90;;;;;;5076837;28;20046;-74